createdAt,value
2024-05-09T00:00:15.695Z,77.73
2024-05-09T00:01:11.830Z,78.01
2024-05-09T00:02:10.972Z,78.34
2024-05-09T00:03:11.926Z,77.92
2024-05-09T00:04:10.937Z,79.15
2024-05-09T00:05:11.343Z,80.37
2024-05-09T00:06:10.994Z,82.04
2024-05-09T00:07:10.929Z,82.36
2024-05-09T00:08:11.209Z,80.56
2024-05-09T00:09:10.920Z,81.01
2024-05-09T00:10:18.271Z,80.59
2024-05-09T00:11:11.929Z,80.73
2024-05-09T00:12:11.074Z,80.81
2024-05-09T00:13:11.319Z,81.11
2024-05-09T00:14:11.042Z,80.24
2024-05-09T00:15:10.849Z,80.18
2024-05-09T00:16:10.892Z,80.61
2024-05-09T00:17:10.899Z,78.40
2024-05-09T00:18:11.132Z,79.22
2024-05-09T00:19:11.017Z,79.32
2024-05-09T00:20:17.628Z,79.53
2024-05-09T00:21:11.913Z,79.68
2024-05-09T00:22:10.970Z,79.64
2024-05-09T00:23:12.198Z,80.14
2024-05-09T00:24:10.989Z,79.04
2024-05-09T00:25:11.077Z,78.95
2024-05-09T00:26:11.061Z,81.46
2024-05-09T00:27:13.248Z,79.73
2024-05-09T00:28:11.041Z,81.75
2024-05-09T00:29:11.146Z,79.10
2024-05-09T00:30:17.470Z,79.60
2024-05-09T00:31:12.129Z,79.71
2024-05-09T00:32:11.268Z,79.88
2024-05-09T00:33:11.905Z,79.43
2024-05-09T00:34:11.256Z,78.36
2024-05-09T00:35:11.217Z,80.43
2024-05-09T00:36:11.135Z,80.30
2024-05-09T00:37:11.151Z,79.63
2024-05-09T00:38:11.237Z,78.76
2024-05-09T00:39:11.163Z,79.75
2024-05-09T00:40:15.334Z,79.17
2024-05-09T00:41:12.202Z,79.31
2024-05-09T00:42:11.183Z,79.40
2024-05-09T00:43:11.832Z,79.71
2024-05-09T00:44:11.185Z,78.16
2024-05-09T00:45:11.202Z,78.22
2024-05-09T00:46:11.178Z,78.30
2024-05-09T00:47:11.274Z,78.86
2024-05-09T00:48:13.294Z,77.47
2024-05-09T00:49:11.259Z,77.63
2024-05-09T00:50:15.989Z,77.66
2024-05-09T00:51:12.353Z,77.69
2024-05-09T00:52:11.170Z,78.19
2024-05-09T00:53:11.482Z,77.71
2024-05-09T00:54:11.166Z,76.11
2024-05-09T00:55:11.184Z,77.01
2024-05-09T00:56:11.261Z,78.26
2024-05-09T00:57:11.225Z,75.96
2024-05-09T00:58:11.230Z,78.20
2024-05-09T00:59:11.350Z,75.56
2024-05-09T01:00:22.099Z,76.03
2024-05-09T01:01:12.262Z,76.09
2024-05-09T01:02:11.309Z,76.30
2024-05-09T01:03:13.195Z,75.77
2024-05-09T01:04:11.537Z,78.73
2024-05-09T01:05:11.370Z,78.39
2024-05-09T01:06:11.240Z,76.29
2024-05-09T01:07:11.255Z,76.54
2024-05-09T01:08:11.612Z,75.39
2024-05-09T01:09:11.298Z,75.82
2024-05-09T01:10:17.075Z,75.68
2024-05-09T01:11:12.400Z,75.97
2024-05-09T01:12:11.559Z,76.35
2024-05-09T01:13:11.276Z,76.41
2024-05-09T01:14:11.310Z,76.30
2024-05-09T01:15:11.305Z,76.59
2024-05-09T01:16:11.316Z,76.03
2024-05-09T01:17:11.312Z,74.97
2024-05-09T01:18:12.601Z,76.03
2024-05-09T01:19:11.468Z,75.21
2024-05-09T01:20:19.790Z,74.10
2024-05-09T01:21:12.458Z,74.26
2024-05-09T01:22:11.286Z,73.35
2024-05-09T01:23:11.762Z,74.48
2024-05-09T01:24:11.309Z,74.80
2024-05-09T01:25:11.316Z,73.18
2024-05-09T01:26:11.392Z,72.64
2024-05-09T01:27:11.339Z,71.30
2024-05-09T01:28:11.333Z,72.53
2024-05-09T01:29:11.395Z,71.43
2024-05-09T01:30:17.197Z,72.27
2024-05-09T01:31:12.335Z,72.41
2024-05-09T01:32:11.488Z,72.41
2024-05-09T01:33:12.521Z,71.66
2024-05-09T01:34:11.377Z,71.03
2024-05-09T01:35:11.338Z,72.85
2024-05-09T01:36:11.365Z,70.55
2024-05-09T01:37:11.323Z,72.82
2024-05-09T01:38:11.460Z,70.71
2024-05-09T01:39:11.362Z,72.58
2024-05-09T01:40:15.358Z,71.03
2024-05-09T01:41:12.426Z,71.19
2024-05-09T01:42:11.343Z,71.62
2024-05-09T01:43:12.170Z,71.86
2024-05-09T01:44:11.397Z,72.38
2024-05-09T01:45:11.362Z,74.31
2024-05-09T01:46:11.356Z,72.67
2024-05-09T01:47:11.494Z,73.36
2024-05-09T01:48:11.849Z,74.16
2024-05-09T01:49:11.433Z,73.10
2024-05-09T01:50:11.577Z,72.43
2024-05-09T01:51:11.538Z,74.71
2024-05-09T01:52:11.401Z,71.81
2024-05-09T01:53:11.834Z,71.52
2024-05-09T01:54:11.387Z,73.13
2024-05-09T01:55:11.417Z,70.04
2024-05-09T01:56:11.437Z,71.02
2024-05-09T01:57:11.399Z,71.96
2024-05-09T01:58:11.440Z,69.73
2024-05-09T01:59:11.537Z,72.62
2024-05-09T02:00:15.595Z,73.56
2024-05-09T02:01:11.523Z,73.68
2024-05-09T02:02:11.674Z,73.21
2024-05-09T02:03:14.452Z,73.85
2024-05-09T02:04:12.741Z,73.73
2024-05-09T02:05:11.601Z,73.72
2024-05-09T02:06:11.637Z,73.26
2024-05-09T02:07:11.491Z,74.50
2024-05-09T02:08:11.563Z,72.92
2024-05-09T02:09:11.520Z,74.79
2024-05-09T02:10:20.013Z,73.42
2024-05-09T02:11:12.710Z,73.57
2024-05-09T02:12:11.640Z,73.96
2024-05-09T02:13:11.498Z,74.51
2024-05-09T02:14:11.543Z,74.84
2024-05-09T02:15:11.521Z,74.46
2024-05-09T02:16:11.546Z,74.75
2024-05-09T02:17:11.577Z,73.67
2024-05-09T02:18:12.024Z,73.24
2024-05-09T02:19:11.725Z,71.49
2024-05-09T02:20:18.797Z,71.95
2024-05-09T02:21:12.639Z,72.20
2024-05-09T02:22:11.572Z,72.65
2024-05-09T02:23:11.681Z,73.62
2024-05-09T02:24:11.612Z,73.32
2024-05-09T02:25:11.594Z,74.53
2024-05-09T02:26:11.610Z,76.05
2024-05-09T02:27:11.598Z,73.73
2024-05-09T02:28:11.596Z,73.73
2024-05-09T02:29:11.596Z,73.84
2024-05-09T02:30:18.840Z,73.34
2024-05-09T02:31:12.594Z,73.53
2024-05-09T02:32:11.712Z,73.61
2024-05-09T02:33:13.635Z,74.17
2024-05-09T02:34:11.723Z,75.07
2024-05-09T02:35:11.644Z,74.34
2024-05-09T02:36:11.606Z,73.30
2024-05-09T02:37:11.602Z,73.54
2024-05-09T02:38:11.900Z,74.81
2024-05-09T02:39:11.611Z,74.74
2024-05-09T02:40:14.622Z,73.55
2024-05-09T02:41:12.674Z,73.81
2024-05-09T02:42:11.623Z,74.08
2024-05-09T02:43:12.553Z,74.86
2024-05-09T02:44:11.759Z,74.37
2024-05-09T02:45:11.616Z,77.41
2024-05-09T02:46:11.626Z,75.36
2024-05-09T02:47:11.752Z,76.98
2024-05-09T02:48:12.617Z,74.67
2024-05-09T02:49:12.039Z,76.13
2024-05-09T02:51:11.737Z,77.01
2024-05-09T02:52:11.664Z,76.52
2024-05-09T02:53:11.923Z,76.14
2024-05-09T02:54:11.623Z,76.05
2024-05-09T02:55:11.631Z,74.97
2024-05-09T02:56:11.716Z,76.67
2024-05-09T02:57:11.740Z,74.52
2024-05-09T02:58:11.751Z,73.71
2024-05-09T02:59:11.762Z,74.88
2024-05-09T03:00:18.515Z,74.25
2024-05-09T03:01:12.832Z,74.44
2024-05-09T03:02:11.854Z,74.54
2024-05-09T03:03:14.095Z,75.30
2024-05-09T03:04:11.806Z,74.41
2024-05-09T03:05:11.887Z,74.38
2024-05-09T03:06:11.775Z,74.88
2024-05-09T03:07:11.825Z,74.81
2024-05-09T03:08:11.958Z,76.08
2024-05-09T03:09:11.783Z,75.07
2024-05-09T03:10:18.417Z,74.51
2024-05-09T03:11:12.879Z,74.69
2024-05-09T03:12:12.055Z,75.18
2024-05-09T03:13:12.543Z,74.78
2024-05-09T03:14:11.869Z,75.19
2024-05-09T03:15:11.829Z,74.14
2024-05-09T03:16:11.914Z,73.08
2024-05-09T03:17:12.028Z,72.43
2024-05-09T03:18:12.524Z,73.24
2024-05-09T03:19:11.974Z,72.29
2024-05-09T03:20:20.324Z,72.12
2024-05-09T03:21:12.828Z,72.19
2024-05-09T03:22:11.778Z,72.25
2024-05-09T03:23:11.906Z,72.21
2024-05-09T03:24:11.804Z,71.63
2024-05-09T03:25:11.798Z,71.05
2024-05-09T03:26:11.896Z,72.56
2024-05-09T03:27:11.834Z,69.71
2024-05-09T03:28:11.782Z,70.34
2024-05-09T03:29:11.827Z,70.92
2024-05-09T03:30:15.582Z,71.54
2024-05-09T03:31:12.806Z,71.66
2024-05-09T03:32:12.224Z,71.64
2024-05-09T03:33:13.160Z,71.43
2024-05-09T03:34:11.868Z,72.95
2024-05-09T03:35:11.848Z,73.62
2024-05-09T03:36:11.800Z,71.38
2024-05-09T03:37:11.856Z,71.02
2024-05-09T03:38:12.112Z,71.08
2024-05-09T03:39:11.941Z,71.55
2024-05-09T03:40:20.242Z,69.78
2024-05-09T03:41:12.997Z,69.94
2024-05-09T03:42:12.103Z,70.04
2024-05-09T03:43:11.952Z,70.43
2024-05-09T03:44:12.051Z,69.92
2024-05-09T03:45:11.973Z,71.40
2024-05-09T03:46:11.973Z,69.99
2024-05-09T03:47:12.162Z,70.60
2024-05-09T03:48:12.344Z,69.92
2024-05-09T03:49:12.122Z,71.66
2024-05-09T03:50:18.378Z,69.44
2024-05-09T03:51:13.058Z,69.61
2024-05-09T03:52:11.990Z,69.87
2024-05-09T03:53:12.036Z,70.00
2024-05-09T03:54:11.994Z,70.54
2024-05-09T03:55:11.994Z,71.98
2024-05-09T03:56:12.084Z,70.12
2024-05-09T03:57:12.089Z,69.84
2024-05-09T03:58:12.050Z,69.19
2024-05-09T03:59:12.044Z,69.29
2024-05-09T04:00:17.964Z,69.46
2024-05-09T04:01:13.057Z,69.66
2024-05-09T04:02:12.138Z,70.01
2024-05-09T04:03:13.234Z,69.99
2024-05-09T04:04:12.118Z,70.60
2024-05-09T04:05:12.093Z,70.94
2024-05-09T04:06:12.050Z,69.41
2024-05-09T04:07:12.085Z,69.51
2024-05-09T04:08:12.243Z,69.87
2024-05-09T04:09:12.063Z,69.83
2024-05-09T04:10:20.696Z,70.93
2024-05-09T04:11:13.200Z,71.00
2024-05-09T04:12:12.264Z,70.15
2024-05-09T04:13:12.123Z,69.84
2024-05-09T04:14:12.142Z,69.82
2024-05-09T04:15:13.644Z,69.23
2024-05-09T04:16:12.197Z,68.41
2024-05-09T04:17:12.129Z,69.65
2024-05-09T04:18:12.101Z,66.98
2024-05-09T04:19:12.124Z,67.15
2024-05-09T04:20:21.339Z,65.28
2024-05-09T04:21:13.095Z,65.51
2024-05-09T04:22:12.097Z,66.05
2024-05-09T04:23:12.615Z,65.85
2024-05-09T04:24:12.071Z,66.09
2024-05-09T04:25:12.075Z,66.52
2024-05-09T04:26:12.175Z,66.19
2024-05-09T04:27:12.134Z,67.00
2024-05-09T04:28:12.168Z,66.78
2024-05-09T04:29:12.150Z,67.19
2024-05-09T04:30:18.970Z,67.00
2024-05-09T04:31:13.143Z,67.13
2024-05-09T04:32:12.214Z,67.07
2024-05-09T04:33:13.896Z,67.37
2024-05-09T04:34:12.447Z,67.91
2024-05-09T04:35:12.388Z,66.50
2024-05-09T04:36:12.422Z,67.61
2024-05-09T04:37:12.496Z,67.35
2024-05-09T04:38:12.675Z,67.13
2024-05-09T04:39:12.551Z,66.16
2024-05-09T04:40:24.028Z,65.75
2024-05-09T04:41:13.614Z,65.90
2024-05-09T04:42:12.602Z,66.22
2024-05-09T04:43:12.568Z,67.25
2024-05-09T04:44:12.651Z,67.01
2024-05-09T04:45:12.588Z,64.83
2024-05-09T04:46:12.636Z,66.38
2024-05-09T04:47:12.749Z,67.26
2024-05-09T04:48:13.020Z,64.20
2024-05-09T04:49:12.760Z,67.00
2024-05-09T04:50:21.148Z,63.84
2024-05-09T04:51:13.710Z,64.07
2024-05-09T04:52:12.641Z,64.72
2024-05-09T04:53:19.974Z,50.00
2024-05-09T04:55:19.961Z,50.00
2024-05-09T04:56:20.012Z,50.00
2024-05-09T04:57:19.958Z,50.00
2024-05-09T04:58:19.980Z,50.48
2024-05-09T04:59:20.005Z,51.28
2024-05-09T05:00:42.693Z,51.79
2024-05-09T05:01:20.083Z,52.27
2024-05-09T05:02:20.116Z,53.43
2024-05-09T05:03:20.288Z,54.37
2024-05-09T05:04:20.161Z,55.25
2024-05-09T05:05:20.037Z,52.90
2024-05-09T05:06:20.016Z,51.86
2024-05-09T05:07:20.010Z,51.76
2024-05-09T05:08:20.198Z,51.85
2024-05-09T05:09:20.074Z,51.25
2024-05-09T05:10:25.472Z,51.93
2024-05-09T05:11:21.165Z,52.06
2024-05-09T05:12:20.151Z,52.07
2024-05-09T05:13:21.365Z,50.87
2024-05-09T05:14:20.131Z,52.05
2024-05-09T05:15:20.089Z,51.87
2024-05-09T05:16:20.154Z,51.56
2024-05-09T05:17:20.216Z,52.43
2024-05-09T05:18:20.504Z,52.00
2024-05-09T05:19:20.340Z,52.64
2024-05-09T05:20:27.443Z,51.04
2024-05-09T05:21:21.429Z,51.28
2024-05-09T05:22:20.313Z,51.64
2024-05-09T05:23:20.548Z,52.21
2024-05-09T05:24:20.286Z,51.62
2024-05-09T05:25:20.285Z,51.66
2024-05-09T05:26:20.468Z,51.71
2024-05-09T05:27:20.307Z,52.20
2024-05-09T05:28:20.317Z,52.32
2024-05-09T05:29:20.999Z,52.67
2024-05-09T05:30:25.251Z,51.19
2024-05-09T05:31:21.395Z,51.34
2024-05-09T05:32:20.511Z,51.57
2024-05-09T05:33:20.772Z,51.55
2024-05-09T05:34:20.296Z,51.62
2024-05-09T05:35:20.369Z,53.35
2024-05-09T05:36:20.317Z,50.65
2024-05-09T05:37:20.337Z,52.11
2024-05-09T05:38:22.852Z,51.54
2024-05-09T05:39:20.341Z,51.64
2024-05-09T05:40:28.202Z,51.66
2024-05-09T05:41:21.342Z,51.72
2024-05-09T05:42:20.349Z,51.75
2024-05-09T05:43:20.372Z,49.24
2024-05-09T05:44:20.410Z,48.84
2024-05-09T05:46:42.847Z,51.96
2024-05-09T05:47:20.492Z,52.29
2024-05-09T05:48:20.537Z,54.77
2024-05-09T05:49:20.510Z,56.01
2024-05-09T05:50:27.520Z,56.54
2024-05-09T05:51:21.493Z,51.98
2024-05-09T05:52:20.352Z,52.89
2024-05-09T05:53:20.441Z,53.62
2024-05-09T05:54:20.376Z,54.66
2024-05-09T05:55:20.391Z,53.32
2024-05-09T05:56:20.436Z,52.49
2024-05-09T05:57:20.373Z,50.01
2024-05-09T05:58:20.422Z,50.44
2024-05-09T05:59:20.418Z,53.15
2024-05-09T06:00:29.287Z,51.91
2024-05-09T06:01:21.524Z,52.02
2024-05-09T06:02:20.607Z,52.02
2024-05-09T06:03:20.571Z,51.23
2024-05-09T06:04:20.536Z,51.48
2024-05-09T06:05:20.481Z,50.26
2024-05-09T06:06:20.499Z,50.83
2024-05-09T06:07:20.503Z,50.00
2024-05-09T06:08:20.688Z,51.00
2024-05-09T06:09:20.550Z,51.21
2024-05-09T06:10:25.671Z,50.01
2024-05-09T06:11:21.647Z,50.16
2024-05-09T06:12:20.749Z,50.38
2024-05-09T06:13:20.499Z,48.06
2024-05-09T06:14:20.766Z,49.36
2024-05-09T06:15:20.529Z,48.49
2024-05-09T06:16:20.509Z,50.92
2024-05-09T06:17:20.724Z,50.26
2024-05-09T06:18:20.767Z,51.72
2024-05-09T06:19:20.801Z,50.57
2024-05-09T06:20:27.390Z,51.72
2024-05-09T06:21:21.722Z,51.77
2024-05-09T06:22:20.563Z,51.99
2024-05-09T06:23:20.659Z,51.42
2024-05-09T06:24:20.593Z,50.65
2024-05-09T06:25:20.635Z,49.51
2024-05-09T06:26:20.652Z,48.46
2024-05-09T06:27:20.614Z,51.13
2024-05-09T06:28:20.599Z,50.21
2024-05-09T06:29:20.686Z,51.42
2024-05-09T06:30:29.904Z,51.41
2024-05-09T06:31:21.617Z,51.54
2024-05-09T06:32:20.855Z,51.90
2024-05-09T06:33:20.765Z,50.88
2024-05-09T06:34:20.788Z,51.33
2024-05-09T06:35:20.659Z,52.82
2024-05-09T06:36:20.629Z,53.03
2024-05-09T06:37:20.707Z,56.00
2024-05-09T06:38:20.729Z,56.30
2024-05-09T06:39:20.640Z,55.93
2024-05-09T06:40:25.723Z,54.85
2024-05-09T06:41:21.760Z,54.98
2024-05-09T06:42:20.637Z,55.35
2024-05-09T06:43:20.642Z,52.81
2024-05-09T06:44:20.677Z,52.58
2024-05-09T06:45:20.648Z,53.94
2024-05-09T06:46:20.670Z,55.52
2024-05-09T06:47:20.741Z,55.91
2024-05-09T06:48:21.262Z,53.77
2024-05-09T06:49:20.787Z,53.89
2024-05-09T06:50:24.263Z,53.00
2024-05-09T06:51:21.674Z,53.24
2024-05-09T06:52:20.665Z,53.86
2024-05-09T06:53:20.770Z,52.90
2024-05-09T06:54:20.676Z,52.22
2024-05-09T06:55:20.659Z,57.48
2024-05-09T06:56:20.707Z,50.30
2024-05-09T06:57:20.661Z,57.21
2024-05-09T06:58:20.679Z,57.03
2024-05-09T06:59:20.694Z,55.07
2024-05-09T07:00:27.720Z,55.50
2024-05-09T07:01:21.714Z,55.68
2024-05-09T07:02:20.771Z,55.96
2024-05-09T07:03:20.869Z,51.80
2024-05-09T07:04:20.737Z,52.78
2024-05-09T07:05:20.857Z,52.49
2024-05-09T07:06:20.701Z,57.08
2024-05-09T07:07:20.703Z,58.21
2024-05-09T07:08:20.769Z,58.36
2024-05-09T07:09:20.728Z,58.27
2024-05-09T07:10:28.651Z,60.72
2024-05-09T07:11:21.809Z,59.53
2024-05-09T07:12:20.852Z,57.87
2024-05-09T07:13:20.734Z,59.12
2024-05-09T07:14:20.781Z,58.40
2024-05-09T07:15:20.715Z,56.04
2024-05-09T07:16:20.734Z,58.89
2024-05-09T07:17:20.833Z,54.98
2024-05-09T07:18:21.001Z,54.98
2024-05-09T07:19:20.794Z,53.19
2024-05-09T07:20:31.650Z,55.57
2024-05-09T07:21:21.863Z,54.28
2024-05-09T07:22:20.772Z,55.87
2024-05-09T07:23:20.843Z,55.94
2024-05-09T07:24:20.797Z,55.79
2024-05-09T07:25:20.792Z,52.49
2024-05-09T07:26:20.851Z,53.24
2024-05-09T07:27:20.763Z,55.49
2024-05-09T07:28:20.787Z,56.12
2024-05-09T07:29:20.900Z,55.81
2024-05-09T07:30:27.535Z,58.49
2024-05-09T07:31:21.877Z,58.67
2024-05-09T07:32:20.911Z,58.94
2024-05-09T07:33:22.640Z,58.80
2024-05-09T07:34:20.946Z,54.66
2024-05-09T07:35:20.893Z,59.08
2024-05-09T07:36:20.870Z,60.12
2024-05-09T07:37:20.903Z,56.80
2024-05-09T07:38:21.128Z,58.24
2024-05-09T07:39:20.896Z,57.00
2024-05-09T07:40:31.577Z,54.33
2024-05-09T07:41:21.939Z,54.83
2024-05-09T07:42:20.903Z,55.35
2024-05-09T07:43:20.910Z,55.89
2024-05-09T07:44:20.967Z,57.49
2024-05-09T07:45:39.896Z,52.93
2024-05-09T07:48:32.063Z,54.51
2024-05-09T07:53:30.363Z,54.62
2024-05-09T07:53:39.143Z,54.79
2024-05-09T07:54:22.041Z,54.73
2024-05-09T07:55:21.026Z,55.39
2024-05-09T07:56:22.690Z,57.21
2024-05-09T07:57:21.029Z,54.50
2024-05-09T07:58:20.942Z,54.93
2024-05-09T07:59:20.998Z,54.96
2024-05-09T08:00:29.483Z,56.15
2024-05-09T08:01:22.152Z,54.54
2024-05-09T08:02:21.037Z,54.39
2024-05-09T08:03:21.088Z,51.14
2024-05-09T08:04:22.387Z,54.45
2024-05-09T08:05:21.083Z,52.17
2024-05-09T08:06:20.977Z,59.41
2024-05-09T08:07:20.997Z,59.45
2024-05-09T08:08:21.003Z,58.35
2024-05-09T08:09:21.537Z,60.18
2024-05-09T08:10:24.671Z,58.71
2024-05-09T08:11:22.135Z,58.86
2024-05-09T08:12:21.090Z,59.18
2024-05-09T08:13:21.231Z,57.23
2024-05-09T08:14:21.102Z,60.26
2024-05-09T08:15:21.098Z,64.34
2024-05-09T08:16:21.300Z,66.38
2024-05-09T08:17:21.195Z,67.95
2024-05-09T08:18:21.260Z,66.34
2024-05-09T08:19:21.189Z,62.98
2024-05-09T08:20:30.143Z,58.71
2024-05-09T08:21:22.107Z,58.88
2024-05-09T08:22:21.161Z,59.04
2024-05-09T08:23:21.110Z,59.54
2024-05-09T08:24:21.129Z,60.51
2024-05-09T08:25:21.196Z,60.89
2024-05-09T08:26:21.170Z,60.19
2024-05-09T08:27:21.141Z,59.29
2024-05-09T08:28:21.278Z,59.87
2024-05-09T08:29:21.205Z,61.48
2024-05-09T08:30:29.058Z,60.40
2024-05-09T08:31:22.243Z,60.45
2024-05-09T08:32:21.192Z,60.66
2024-05-09T08:33:21.290Z,59.69
2024-05-09T08:34:21.297Z,57.28
2024-05-09T08:35:21.169Z,57.71
2024-05-09T08:36:21.184Z,58.30
2024-05-09T08:37:23.528Z,56.48
2024-05-09T08:38:22.281Z,56.62
2024-05-09T08:39:21.175Z,56.65
2024-05-09T08:40:30.541Z,56.53
2024-05-09T08:41:22.202Z,56.62
2024-05-09T08:42:21.187Z,57.06
2024-05-09T08:43:21.412Z,57.29
2024-05-09T08:44:21.198Z,55.02
2024-05-09T08:45:21.210Z,53.75
2024-05-09T08:46:21.416Z,54.71
2024-05-09T08:47:21.306Z,53.62
2024-05-09T08:48:21.377Z,52.33
2024-05-09T08:49:21.348Z,52.73
2024-05-09T08:50:31.442Z,55.59
2024-05-09T08:51:22.194Z,55.70
2024-05-09T08:52:21.217Z,54.73
2024-05-09T08:53:21.220Z,55.00
2024-05-09T08:54:21.231Z,52.33
2024-05-09T08:55:21.281Z,56.68
2024-05-09T08:56:21.276Z,56.38
2024-05-09T08:57:21.252Z,56.00
2024-05-09T08:58:21.380Z,53.94
2024-05-09T08:59:21.300Z,54.22
2024-05-09T09:00:29.623Z,56.25
2024-05-09T09:01:22.436Z,56.30
2024-05-09T09:02:21.594Z,56.23
2024-05-09T09:03:21.283Z,54.31
2024-05-09T09:04:21.445Z,56.50
2024-05-09T09:05:21.532Z,57.51
2024-05-09T09:06:21.355Z,59.23
2024-05-09T09:07:21.376Z,59.57
2024-05-09T09:08:21.330Z,60.45
2024-05-09T09:09:21.326Z,63.78
2024-05-09T09:10:29.568Z,62.92
2024-05-09T09:11:22.376Z,63.06
2024-05-09T09:12:21.353Z,63.44
2024-05-09T09:13:21.395Z,64.34
2024-05-09T09:14:21.373Z,65.88
2024-05-09T09:15:21.352Z,71.11
2024-05-09T09:16:21.440Z,72.60
2024-05-09T09:17:21.427Z,71.60
2024-05-09T09:18:21.457Z,71.52
2024-05-09T09:19:21.626Z,69.71
2024-05-09T09:20:28.725Z,70.28
2024-05-09T09:21:22.406Z,70.50
2024-05-09T09:22:21.427Z,70.94
2024-05-09T09:23:21.396Z,70.31
2024-05-09T09:24:21.409Z,71.33
2024-05-09T09:25:21.428Z,71.84
2024-05-09T09:26:21.424Z,74.00
2024-05-09T09:27:21.452Z,69.77
2024-05-09T09:28:21.538Z,72.66
2024-05-09T09:29:21.456Z,73.45
2024-05-09T09:30:33.989Z,72.22
2024-05-09T09:31:22.476Z,72.29
2024-05-09T09:32:21.487Z,72.41
2024-05-09T09:33:21.502Z,71.91
2024-05-09T09:34:21.584Z,73.23
2024-05-09T09:35:21.486Z,72.83
2024-05-09T09:36:21.528Z,74.76
2024-05-09T09:37:21.504Z,74.65
2024-05-09T09:38:21.463Z,74.52
2024-05-09T09:39:21.497Z,74.56
2024-05-09T09:40:22.391Z,76.23
2024-05-09T09:41:21.530Z,76.36
2024-05-09T09:42:21.546Z,76.78
2024-05-09T09:43:22.005Z,77.29
2024-05-09T09:44:21.544Z,77.09
2024-05-09T09:45:21.553Z,77.28
2024-05-09T09:46:21.589Z,80.31
2024-05-09T09:47:21.603Z,80.08
2024-05-09T09:48:21.742Z,81.83
2024-05-09T09:49:21.593Z,81.00
2024-05-09T09:50:27.713Z,81.90
2024-05-09T09:51:22.547Z,82.02
2024-05-09T09:52:21.737Z,82.02
2024-05-09T09:53:21.653Z,82.46
2024-05-09T09:54:21.587Z,82.82
2024-05-09T09:55:21.610Z,83.96
2024-05-09T09:56:21.585Z,84.98
2024-05-09T09:57:21.559Z,87.74
2024-05-09T09:58:21.706Z,86.03
2024-05-09T09:59:21.638Z,89.02
2024-05-09T10:00:27.127Z,89.56
2024-05-09T10:01:22.733Z,89.68
2024-05-09T10:02:21.797Z,90.01
2024-05-09T10:03:21.727Z,86.91
2024-05-09T10:04:21.827Z,88.75
2024-05-09T10:05:21.766Z,84.76
2024-05-09T10:06:21.632Z,88.20
2024-05-09T10:07:21.740Z,84.37
2024-05-09T10:08:21.624Z,87.50
2024-05-09T10:09:21.652Z,88.62
2024-05-09T10:10:27.412Z,92.05
2024-05-09T10:11:22.811Z,92.21
2024-05-09T10:12:21.734Z,92.57
2024-05-09T10:13:21.799Z,92.90
2024-05-09T10:14:21.673Z,95.35
2024-05-09T10:15:21.748Z,94.51
2024-05-09T10:16:21.904Z,95.64
2024-05-09T10:17:21.760Z,95.72
2024-05-09T10:18:21.766Z,95.05
2024-05-09T10:19:21.777Z,98.87
2024-05-09T10:20:25.223Z,100.34
2024-05-09T10:21:22.674Z,100.45
2024-05-09T10:22:21.731Z,100.77
2024-05-09T10:23:21.667Z,101.38
2024-05-09T10:24:21.687Z,102.68
2024-05-09T10:25:21.848Z,103.57
2024-05-09T10:26:21.695Z,101.74
2024-05-09T10:27:21.709Z,102.21
2024-05-09T10:28:21.721Z,101.58
2024-05-09T10:29:21.706Z,101.17
2024-05-09T10:30:29.480Z,100.86
2024-05-09T10:31:22.735Z,101.02
2024-05-09T10:32:21.796Z,101.59
2024-05-09T10:33:21.792Z,101.57
2024-05-09T10:34:22.051Z,101.63
2024-05-09T10:35:21.727Z,102.65
2024-05-09T10:36:21.766Z,102.28
2024-05-09T10:37:21.885Z,102.04
2024-05-09T10:38:21.701Z,98.53
2024-05-09T10:39:21.755Z,99.74
2024-05-09T10:40:26.607Z,98.02
2024-05-09T10:41:22.853Z,98.20
2024-05-09T10:42:21.839Z,98.12
2024-05-09T10:43:21.961Z,95.66
2024-05-09T10:44:21.828Z,95.94
2024-05-09T10:45:21.870Z,93.58
2024-05-09T10:46:22.042Z,93.78
2024-05-09T10:47:21.935Z,95.46
2024-05-09T10:48:21.947Z,97.12
2024-05-09T10:49:21.963Z,96.05
2024-05-09T10:50:28.191Z,98.81
2024-05-09T10:51:23.005Z,98.88
2024-05-09T10:52:21.932Z,97.20
2024-05-09T10:53:21.885Z,94.37
2024-05-09T10:54:21.904Z,94.44
2024-05-09T10:55:22.166Z,95.50
2024-05-09T10:56:21.900Z,91.67
2024-05-09T10:57:21.921Z,90.88
2024-05-09T10:58:21.921Z,89.65
2024-05-09T10:59:21.889Z,93.13
2024-05-09T11:00:27.797Z,91.92
2024-05-09T11:01:23.031Z,92.05
2024-05-09T11:02:22.036Z,88.78
2024-05-09T11:03:21.924Z,87.27
2024-05-09T11:04:21.969Z,87.51
2024-05-09T11:05:22.222Z,81.67
2024-05-09T11:06:21.901Z,82.35
2024-05-09T11:07:21.971Z,79.72
2024-05-09T11:08:21.934Z,81.73
2024-05-09T11:09:21.932Z,80.05
2024-05-09T11:10:27.584Z,81.57
2024-05-09T11:11:23.039Z,81.76
2024-05-09T11:12:23.660Z,82.32
2024-05-09T11:13:21.990Z,84.25
2024-05-09T11:14:21.961Z,86.13
2024-05-09T11:15:21.974Z,87.91
2024-05-09T11:16:22.061Z,86.03
2024-05-09T11:17:21.979Z,83.92
2024-05-09T11:18:25.012Z,85.33
2024-05-09T11:19:22.151Z,85.48
2024-05-09T11:20:26.966Z,83.38
2024-05-09T11:21:23.017Z,85.33
2024-05-09T11:22:22.034Z,81.29
2024-05-09T11:23:21.981Z,79.87
2024-05-09T11:24:21.963Z,77.43
2024-05-09T11:25:22.051Z,76.99
2024-05-09T11:26:22.213Z,76.90
2024-05-09T11:27:22.058Z,76.81
2024-05-09T11:28:22.094Z,77.25
2024-05-09T11:29:22.039Z,73.88
2024-05-09T11:30:29.732Z,73.56
2024-05-09T11:31:23.360Z,73.66
2024-05-09T11:32:22.094Z,74.01
2024-05-09T11:33:22.131Z,74.66
2024-05-09T11:34:22.125Z,77.40
2024-05-09T11:35:22.057Z,77.56
2024-05-09T11:36:22.065Z,74.05
2024-05-09T11:37:22.115Z,74.84
2024-05-09T11:38:22.034Z,75.79
2024-05-09T11:39:22.056Z,75.75
2024-05-09T11:40:25.712Z,78.74
2024-05-09T11:41:23.056Z,78.87
2024-05-09T11:42:22.047Z,78.91
2024-05-09T11:43:22.149Z,79.36
2024-05-09T11:44:22.073Z,79.27
2024-05-09T11:45:22.089Z,75.55
2024-05-09T11:46:22.114Z,75.09
2024-05-09T11:47:22.140Z,75.49
2024-05-09T11:48:22.324Z,70.94
2024-05-09T11:49:23.871Z,72.97
2024-05-09T11:50:27.383Z,75.48
2024-05-09T11:51:23.093Z,75.71
2024-05-09T11:52:22.143Z,75.72
2024-05-09T11:53:22.106Z,73.31
2024-05-09T11:54:22.110Z,70.25
2024-05-09T11:55:23.955Z,70.70
2024-05-09T11:56:22.113Z,72.02
2024-05-09T11:57:22.090Z,71.36
2024-05-09T11:58:22.115Z,71.04
2024-05-09T11:59:22.108Z,68.17
2024-05-09T12:00:29.608Z,65.52
2024-05-09T12:01:25.308Z,65.73
2024-05-09T12:02:22.190Z,65.73
2024-05-09T12:03:22.179Z,65.98
2024-05-09T12:04:22.231Z,66.56
2024-05-09T12:05:22.329Z,66.87
2024-05-09T12:06:22.136Z,66.20
2024-05-09T12:07:22.242Z,63.29
2024-05-09T12:08:22.127Z,62.16
2024-05-09T12:09:22.121Z,59.75
2024-05-09T12:10:26.283Z,57.85
2024-05-09T12:11:23.184Z,57.96
2024-05-09T12:12:22.131Z,58.29
2024-05-09T12:13:22.283Z,55.74
2024-05-09T12:14:22.157Z,54.53
2024-05-09T12:15:22.135Z,50.12
2024-05-09T12:16:22.274Z,51.30
2024-05-09T12:17:22.855Z,50.00
2024-05-09T12:18:22.208Z,53.37
2024-05-09T12:19:22.226Z,52.08
2024-05-09T12:20:28.822Z,50.36
2024-05-09T12:21:23.178Z,50.03
2024-05-09T12:22:22.219Z,42.07
2024-05-09T12:23:22.164Z,46.32
2024-05-09T12:24:22.230Z,48.35
2024-05-09T12:25:22.255Z,47.80
2024-05-09T12:26:22.184Z,50.17
2024-05-09T12:27:22.190Z,50.00
2024-05-09T12:28:22.302Z,51.24
2024-05-09T12:29:22.172Z,50.26
2024-05-09T12:30:32.689Z,54.11
2024-05-09T12:31:23.244Z,54.26
2024-05-09T12:32:22.257Z,53.55
2024-05-09T12:33:22.362Z,53.06
2024-05-09T12:34:22.274Z,54.81
2024-05-09T12:35:22.208Z,54.16
2024-05-09T12:36:22.208Z,52.50
2024-05-09T12:37:22.243Z,50.34
2024-05-09T12:38:22.185Z,50.19
2024-05-09T12:39:22.210Z,52.36
2024-05-09T12:40:31.335Z,50.00
2024-05-09T12:41:23.247Z,50.14
2024-05-09T12:42:27.113Z,48.25
2024-05-09T12:43:23.444Z,50.14
2024-05-09T12:44:22.258Z,50.23
2024-05-09T12:45:22.254Z,48.45
2024-05-09T12:46:22.372Z,46.60
2024-05-09T12:47:22.334Z,45.22
2024-05-09T12:48:22.453Z,51.08
2024-05-09T12:49:22.404Z,50.24
2024-05-09T12:50:29.648Z,52.50
2024-05-09T12:51:23.260Z,52.72
2024-05-09T12:52:22.488Z,53.25
2024-05-09T12:53:22.298Z,53.39
2024-05-09T12:54:22.279Z,54.47
2024-05-09T12:55:22.325Z,56.18
2024-05-09T12:56:22.280Z,55.92
2024-05-09T12:57:22.272Z,52.72
2024-05-09T12:58:22.825Z,51.36
2024-05-09T12:59:22.305Z,50.14
2024-05-09T13:00:28.203Z,52.28